Time;durP1;ratioP1;P1;durP2;ratioP2;P2;SDS_P1;SDS_P2;PMS_P1;PMS_P2;Temp;Humidity;BMP_temperature;BMP_pressure;BME280_temperature;BME280_humidity;BME280_pressure;Samples;Min_cycle;Max_cycle;Signal;HPM_P1;HPM_P2
2023/06/19 00:00:29;;;;;;;5.43;3.08;;;;;;;16.07;49.59;151321.66;5063580;28;20056;-72
2023/06/19 00:02:55;;;;;;;3.45;2.60;;;;;;;16.19;49.26;151353.84;5063608;28;20036;-74
2023/06/19 00:05:23;;;;;;;5.88;2.70;;;;;;;16.14;49.24;151339.69;5063409;28;20035;-73
2023/06/19 00:07:48;;;;;;;6.72;2.70;;;;;;;15.95;49.84;151293.34;5063422;28;20041;-71
2023/06/19 00:10:14;;;;;;;3.63;2.40;;;;;;;16.02;49.45;151311.34;5079128;28;20053;-72
2023/06/19 00:12:39;;;;;;;3.78;3.10;;;;;;;16.05;49.34;151319.06;5063282;28;20049;-72
2023/06/19 00:15:07;;;;;;;3.78;2.20;;;;;;;16.00;49.47;151306.22;5063203;28;20032;-72
2023/06/19 00:17:33;;;;;;;2.83;2.40;;;;;;;15.91;49.74;151283.03;5059678;28;20032;-70
2023/06/19 00:19:58;;;;;;;4.18;2.53;;;;;;;15.92;49.54;151284.31;5063417;28;20074;-69
2023/06/19 00:22:25;;;;;;;3.05;2.65;;;;;;;16.02;49.50;151311.34;5063314;28;20040;-70
2023/06/19 00:24:51;;;;;;;3.45;2.22;;;;;;;16.13;48.97;151338.41;5065893;28;20064;-70
2023/06/19 00:27:18;;;;;;;5.32;2.60;;;;;;;16.00;49.14;151304.91;5067427;28;20176;-70
2023/06/19 00:29:43;;;;;;;4.28;2.42;;;;;;;16.09;49.21;151326.78;5067215;28;20035;-69
2023/06/19 00:32:09;;;;;;;4.80;2.70;;;;;;;16.12;50.09;151334.50;5067458;28;20028;-71
2023/06/19 00:34:36;;;;;;;4.82;2.65;;;;;;;16.04;49.54;151316.50;5067153;28;20025;-70
2023/06/19 00:37:03;;;;;;;4.70;2.50;;;;;;;15.81;49.47;151257.28;5066986;28;20048;-70
2023/06/19 00:39:28;;;;;;;3.67;2.50;;;;;;;15.93;49.33;151288.16;5067078;28;20028;-68
2023/06/19 00:41:55;;;;;;;5.05;2.75;;;;;;;15.82;49.41;151259.88;5053961;28;20025;-70
2023/06/19 00:44:21;;;;;;;3.75;2.60;;;;;;;15.85;49.32;151267.59;5066893;28;20224;-69
2023/06/19 00:46:55;;;;;;;2.67;2.45;;;;;;;15.75;49.27;151241.75;5066940;28;20043;-69
2023/06/19 00:49:21;;;;;;;4.95;2.67;;;;;;;15.85;48.94;151267.59;5053228;28;20033;-71
2023/06/19 00:51:46;;;;;;;4.38;2.72;;;;;;;15.91;49.62;151281.75;5060621;28;20104;-70
2023/06/19 00:54:12;;;;;;;5.00;2.45;;;;;;;15.93;49.60;151288.16;5066952;28;20071;-71
2023/06/19 00:56:40;;;;;;;3.55;2.40;;;;;;;15.87;49.51;151274.00;5066966;28;20032;-73
2023/06/19 00:59:16;;;;;;;3.72;2.47;;;;;;;15.75;49.87;151243.06;5068167;28;20025;-71
2023/06/19 01:01:41;;;;;;;4.40;2.55;;;;;;;15.95;49.90;151293.34;5048931;28;20048;-73
2023/06/19 01:04:07;;;;;;;3.00;2.47;;;;;;;15.90;49.53;151280.44;5063628;28;20385;-72
2023/06/19 01:06:59;;;;;;;4.30;2.90;;;;;;;15.81;49.86;151257.28;5066941;28;20021;-72
2023/06/19 01:09:30;;;;;;;;;;;;;;;15.83;50.31;151263.72;5066404;28;20051;-72
2023/06/19 01:12:03;;;;;;;4.63;2.60;;;;;;;15.79;50.35;151252.13;5066697;28;20101;-72
2023/06/19 01:14:37;;;;;;;4.53;2.45;;;;;;;15.70;50.10;151231.50;5065746;28;20044;-70
2023/06/19 01:17:04;;;;;;;4.28;2.80;;;;;;;15.77;50.19;151248.22;5065914;28;20033;-72
2023/06/19 01:19:30;;;;;;;6.88;2.63;;;;;;;15.57;50.58;151198.00;5065309;28;20200;-71
2023/06/19 01:21:55;;;;;;;5.47;3.10;;;;;;;15.59;50.50;151203.19;5065872;28;20024;-71
2023/06/19 01:24:21;;;;;;;4.40;2.70;;;;;;;15.39;51.27;151151.66;5065939;28;20320;-71
2023/06/19 01:26:47;;;;;;;4.03;2.63;;;;;;;15.44;51.15;151165.81;5066173;28;20032;-70
2023/06/19 01:29:18;;;;;;;6.22;3.33;;;;;;;15.30;51.21;151131.06;5066169;28;20029;-70
2023/06/19 01:32:01;;;;;;;3.78;2.63;;;;;;;15.12;51.83;151084.72;5066038;28;20084;-71
2023/06/19 01:34:29;;;;;;;6.65;2.75;;;;;;;14.92;52.05;151034.56;5065817;28;20028;-71
2023/06/19 01:36:57;;;;;;;5.75;2.70;;;;;;;15.02;51.63;151060.28;5065169;28;20476;-71
2023/06/19 01:39:23;;;;;;;4.93;2.35;;;;;;;14.92;52.03;151034.56;5065855;28;20044;-70
2023/06/19 01:41:51;;;;;;;6.20;2.80;;;;;;;14.94;52.50;151039.72;5065620;28;20032;-71
2023/06/19 01:44:17;;;;;;;5.38;2.80;;;;;;;14.93;51.67;151037.16;5065816;28;20050;-71
2023/06/19 01:46:43;;;;;;;3.80;3.10;;;;;;;15.00;52.06;151055.16;5065581;28;20029;-71
2023/06/19 01:49:09;;;;;;;4.03;2.80;;;;;;;14.97;52.22;151047.44;5065940;28;20214;-71
2023/06/19 01:51:35;;;;;;;4.43;2.80;;;;;;;15.11;51.84;151083.47;5065660;28;20040;-70
2023/06/19 01:54:01;;;;;;;4.57;2.90;;;;;;;14.99;52.70;151053.88;5065955;28;20028;-70
2023/06/19 01:56:27;;;;;;;7.05;2.88;;;;;;;15.08;51.53;151075.75;5065646;28;20457;-70
2023/06/19 01:58:55;;;;;;;4.68;2.63;;;;;;;15.18;51.51;151100.22;5065416;28;20035;-70
2023/06/19 02:01:21;;;;;;;4.05;2.72;;;;;;;14.94;51.62;151039.72;5065461;28;20332;-70
2023/06/19 02:03:46;;;;;;;4.78;2.83;;;;;;;14.90;51.91;151029.44;5064965;28;20064;-70
2023/06/19 02:06:12;;;;;;;4.82;2.92;;;;;;;14.73;52.42;150986.97;5065132;28;20092;-71
2023/06/19 02:08:37;;;;;;;4.50;2.80;;;;;;;14.95;52.15;151043.59;5065179;28;20036;-71
2023/06/19 02:11:03;;;;;;;8.27;3.60;;;;;;;14.86;52.11;151019.13;5065308;28;20094;-71
2023/06/19 02:13:28;;;;;;;3.70;2.47;;;;;;;15.04;52.35;151064.19;5065225;28;20052;-71
2023/06/19 02:15:54;;;;;;;3.08;2.75;;;;;;;14.95;52.53;151042.28;5065217;28;20063;-71
2023/06/19 02:18:19;;;;;;;4.50;2.90;;;;;;;15.09;52.67;151078.34;5064798;28;20024;-73
2023/06/19 02:20:45;;;;;;;6.15;2.90;;;;;;;15.19;51.56;151102.75;5064716;28;20315;-70
2023/06/19 02:23:13;;;;;;;4.13;2.72;;;;;;;15.32;50.96;151136.25;5065361;28;20044;-69
2023/06/19 02:25:39;;;;;;;6.25;3.13;;;;;;;15.11;52.33;151083.47;5064956;28;20063;-70
2023/06/19 02:28:04;;;;;;;6.15;2.70;;;;;;;15.28;51.45;151125.94;5064836;28;20053;-72
2023/06/19 02:30:30;;;;;;;3.22;2.25;;;;;;;15.34;51.48;151140.09;5064755;28;20135;-71
2023/06/19 02:32:56;;;;;;;6.22;2.72;;;;;;;14.85;52.65;151017.88;5064689;28;20086;-70
2023/06/19 02:35:21;;;;;;;5.70;2.90;;;;;;;15.04;51.61;151064.19;5064790;28;20031;-71
2023/06/19 02:37:47;;;;;;;4.03;2.80;;;;;;;15.07;52.58;151073.16;5064708;28;20428;-71
2023/06/19 02:40:14;;;;;;;10.63;3.10;;;;;;;15.10;51.88;151079.63;5064684;28;20108;-70
2023/06/19 02:42:40;;;;;;;4.07;3.00;;;;;;;15.23;51.84;151113.06;5064349;28;20394;-70
2023/06/19 02:45:05;;;;;;;3.85;2.25;;;;;;;15.46;52.66;151169.69;5064804;28;20021;-70
2023/06/19 02:47:35;;;;;;;4.43;3.30;;;;;;;15.55;51.37;151192.88;5064771;28;20048;-71
2023/06/19 02:50:03;;;;;;;3.95;2.80;;;;;;;15.17;50.93;151097.63;5064783;28;20029;-71
2023/06/19 02:52:30;;;;;;;4.88;2.55;;;;;;;15.28;51.16;151124.66;5064358;28;20029;-71
2023/06/19 02:54:55;;;;;;;4.50;2.90;;;;;;;15.48;51.21;151174.88;5064572;28;20282;-71
2023/06/19 02:57:21;;;;;;;4.13;2.65;;;;;;;15.62;51.79;151210.91;5063563;28;20059;-72
2023/06/19 02:59:47;;;;;;;4.45;2.70;;;;;;;15.67;51.02;151222.47;5064220;28;20037;-71
2023/06/19 03:02:12;;;;;;;4.05;2.55;;;;;;;15.88;51.30;151275.31;5065012;28;20101;-71
2023/06/19 03:04:38;;;;;;;5.78;2.92;;;;;;;15.90;52.18;151280.44;5064220;28;20024;-71
2023/06/19 03:07:04;;;;;;;6.57;3.30;;;;;;;15.65;50.78;151218.59;5064200;28;20063;-71
2023/06/19 03:09:29;;;;;;;8.88;3.05;;;;;;;15.78;50.58;151249.53;5064194;28;20087;-72
2023/06/19 03:11:55;;;;;;;6.00;2.60;;;;;;;15.98;50.10;151299.78;5062933;28;20043;-71
2023/06/19 03:14:20;;;;;;;7.13;2.90;;;;;;;16.00;50.40;151304.91;5064182;28;20293;-72
2023/06/19 03:16:46;;;;;;;6.22;3.10;;;;;;;16.18;50.98;151350.00;5063848;28;20028;-71
2023/06/19 03:19:12;;;;;;;3.67;2.85;;;;;;;16.05;49.58;151317.81;5063964;28;20029;-72
2023/06/19 03:21:38;;;;;;;5.88;3.03;;;;;;;16.33;50.16;151388.66;5055652;28;20024;-70
2023/06/19 03:24:04;;;;;;;4.45;2.75;;;;;;;16.90;49.18;151531.66;5055323;28;20048;-71
2023/06/19 03:26:29;;;;;;;6.20;3.15;;;;;;;16.80;48.90;151505.88;5063765;28;20036;-71
2023/06/19 03:28:55;;;;;;;4.22;2.85;;;;;;;16.67;49.41;151473.63;5063952;28;20043;-72
2023/06/19 03:31:21;;;;;;;6.55;2.70;;;;;;;16.93;48.34;151538.13;5063894;28;20167;-71
2023/06/19 03:33:46;;;;;;;4.10;2.75;;;;;;;16.99;48.44;151553.56;5064014;28;20036;-72
2023/06/19 03:36:12;;;;;;;4.65;2.90;;;;;;;16.88;49.29;151526.50;5063922;28;20039;-71
2023/06/19 03:38:37;;;;;;;9.25;3.33;;;;;;;16.41;49.36;151406.66;5063520;28;20033;-70
2023/06/19 03:41:03;;;;;;;5.35;2.90;;;;;;;16.38;49.59;151400.22;5063463;28;20047;-71
2023/06/19 03:43:29;;;;;;;9.30;3.17;;;;;;;16.36;49.71;151396.34;5060299;28;20028;-71
2023/06/19 03:45:54;;;;;;;5.68;3.70;;;;;;;16.47;49.85;151422.09;5063484;28;20029;-72
2023/06/19 03:48:20;;;;;;;4.78;2.65;;;;;;;16.67;49.81;151472.34;5063689;28;20033;-73
2023/06/19 03:50:45;;;;;;;5.47;2.42;;;;;;;16.56;49.51;151445.31;5061865;28;20306;-71
2023/06/19 03:53:11;;;;;;;4.90;3.08;;;;;;;16.57;49.68;151447.84;5063440;28;20033;-71
2023/06/19 03:55:36;;;;;;;5.72;3.05;;;;;;;16.58;48.94;151449.19;5063525;28;20062;-72
2023/06/19 03:58:02;;;;;;;5.43;3.10;;;;;;;16.67;49.20;151472.34;5063225;28;20187;-71
2023/06/19 04:00:28;;;;;;;5.15;2.95;;;;;;;16.90;48.99;151530.34;5062901;28;20031;-73
2023/06/19 04:02:53;;;;;;;7.00;2.83;;;;;;;16.81;48.57;151507.13;5063165;28;20025;-75
2023/06/19 04:05:22;;;;;;;4.53;2.90;;;;;;;16.75;49.34;151492.97;5062054;28;20416;-74
2023/06/19 04:07:48;;;;;;;4.47;2.80;;;;;;;16.86;48.50;151520.00;5043583;28;20029;-71
2023/06/19 04:10:14;;;;;;;4.22;2.88;;;;;;;16.96;48.70;151544.53;5059239;28;20052;-72
2023/06/19 04:12:40;;;;;;;6.20;3.08;;;;;;;17.18;48.30;151599.97;5053921;28;20317;-72
2023/06/19 04:15:07;;;;;;;5.28;2.70;;;;;;;17.30;48.22;151629.59;5049696;28;20024;-74
2023/06/19 04:17:32;;;;;;;4.60;2.78;;;;;;;17.17;47.79;151598.69;5063216;28;20021;-71
2023/06/19 04:19:58;;;;;;;5.95;2.70;;;;;;;17.39;47.96;151654.06;5063392;28;20019;-72
2023/06/19 04:22:23;;;;;;;5.75;2.80;;;;;;;17.23;48.51;151612.88;5060216;28;20380;-71
2023/06/19 04:24:49;;;;;;;4.97;2.78;;;;;;;17.43;48.72;151664.41;5062658;28;20033;-71
2023/06/19 04:27:14;;;;;;;6.07;2.65;;;;;;;17.48;49.01;151674.72;5063065;28;20044;-70
2023/06/19 04:29:40;;;;;;;6.00;3.10;;;;;;;17.17;47.29;151597.38;5062791;28;20036;-70
2023/06/19 04:32:10;;;;;;;9.10;3.50;;;;;;;17.37;47.15;151648.94;5063131;28;20021;-74
2023/06/19 04:34:37;;;;;;;6.72;2.72;;;;;;;17.62;47.10;151709.53;5063069;28;20029;-73
2023/06/19 04:37:02;;;;;;;6.05;2.80;;;;;;;17.47;46.28;151672.13;5063042;28;20029;-72
2023/06/19 04:39:28;;;;;;;4.20;2.63;;;;;;;17.71;46.51;151733.97;5054188;28;20348;-73
2023/06/19 04:41:53;;;;;;;2.83;2.40;;;;;;;17.63;46.30;151713.38;5062717;28;20037;-73
2023/06/19 04:44:19;;;;;;;4.32;2.75;;;;;;;17.73;46.21;151739.16;5062937;28;20043;-73
2023/06/19 04:46:44;;;;;;;3.63;2.90;;;;;;;17.67;46.71;151723.72;5062561;28;20021;-73
2023/06/19 04:49:10;;;;;;;5.78;2.70;;;;;;;17.93;46.50;151789.50;5062847;28;20029;-73
2023/06/19 04:51:36;;;;;;;7.22;3.10;;;;;;;18.03;45.72;151812.72;5062438;28;20024;-72
2023/06/19 04:54:02;;;;;;;3.67;2.60;;;;;;;18.15;45.47;151843.66;5063217;28;20029;-73
2023/06/19 04:56:28;;;;;;;5.13;3.00;;;;;;;18.13;45.36;151838.50;5062592;28;20158;-73
2023/06/19 04:58:59;;;;;;;4.05;2.75;;;;;;;18.18;45.62;151851.38;5061940;28;20084;-71
2023/06/19 05:01:28;;;;;;;4.40;2.88;;;;;;;18.41;45.56;151908.13;5062470;28;20302;-73
2023/06/19 05:03:55;;;;;;;5.97;2.67;;;;;;;18.59;44.65;151953.28;5058253;28;20089;-73
2023/06/19 05:06:23;;;;;;;4.68;2.88;;;;;;;18.59;44.02;151954.56;5050936;28;20024;-72
2023/06/19 05:08:48;;;;;;;6.95;3.20;;;;;;;18.84;43.54;152016.50;5062314;28;20209;-73
2023/06/19 05:11:13;;;;;;;6.35;3.10;;;;;;;18.89;44.05;152029.44;5066362;28;20033;-73
2023/06/19 05:13:39;;;;;;;4.00;2.58;;;;;;;18.85;42.44;152017.78;5066737;28;20021;-73
2023/06/19 05:16:05;;;;;;;9.32;2.78;;;;;;;19.09;42.33;152078.47;5067066;28;20032;-73
2023/06/19 05:18:30;;;;;;;6.07;2.50;;;;;;;18.96;42.89;152046.22;5066050;28;20029;-74
2023/06/19 05:20:56;;;;;;;14.50;3.20;;;;;;;19.16;41.89;152096.53;5064874;28;20330;-73
2023/06/19 05:23:21;;;;;;;6.32;2.65;;;;;;;19.21;41.92;152109.47;5066205;28;20243;-74
2023/06/19 05:25:47;;;;;;;5.40;3.03;;;;;;;19.16;41.40;152095.28;5065164;28;20044;-72
2023/06/19 05:28:13;;;;;;;11.40;3.03;;;;;;;19.22;41.03;152110.75;5066320;28;20303;-73
2023/06/19 05:30:38;;;;;;;8.60;2.90;;;;;;;19.37;41.37;152149.47;5066421;28;20040;-72
2023/06/19 05:33:04;;;;;;;29.73;4.18;;;;;;;19.43;41.02;152164.94;5066348;28;20037;-73
2023/06/19 05:35:30;;;;;;;4.07;2.55;;;;;;;19.40;39.84;152155.94;5066473;28;20195;-74
2023/06/19 05:37:56;;;;;;;4.30;2.25;;;;;;;19.48;38.95;152177.84;5066837;28;20025;-73
2023/06/19 05:40:21;;;;;;;27.85;4.03;;;;;;;19.41;39.03;152159.78;5065656;28;20145;-74
2023/06/19 05:42:47;;;;;;;3.42;2.50;;;;;;;19.46;38.68;152171.41;5065543;28;20029;-73
2023/06/19 05:45:13;;;;;;;15.85;3.72;;;;;;;19.58;38.92;152201.06;5061417;28;20033;-74
2023/06/19 05:47:38;;;;;;;6.78;2.30;;;;;;;19.72;38.86;152235.94;5047224;28;20348;-73
2023/06/19 05:50:04;;;;;;;7.93;2.20;;;;;;;19.76;38.96;152247.53;5066027;28;20071;-74
2023/06/19 05:52:30;;;;;;;5.30;2.35;;;;;;;19.90;37.71;152281.19;5065719;28;20318;-74
2023/06/19 05:54:57;;;;;;;2.72;1.80;;;;;;;19.95;38.69;152294.06;5065595;28;20032;-72
2023/06/19 05:57:23;;;;;;;3.50;2.30;;;;;;;19.80;38.11;152256.66;5065812;28;20033;-72
2023/06/19 05:59:50;;;;;;;6.20;2.75;;;;;;;19.45;37.39;152170.13;5065603;28;20040;-70
2023/06/19 06:02:15;;;;;;;4.60;2.50;;;;;;;19.45;37.63;152170.13;5065679;28;20085;-71
2023/06/19 06:04:42;;;;;;;4.30;2.35;;;;;;;19.83;38.30;152264.38;5052874;28;20022;-71
2023/06/19 06:07:08;;;;;;;4.45;2.45;;;;;;;19.78;37.45;152251.41;5059343;28;20028;-71
2023/06/19 06:09:34;;;;;;;5.53;2.45;;;;;;;19.59;38.02;152204.94;5065361;28;20152;-73
2023/06/19 06:12:00;;;;;;;3.42;2.30;;;;;;;19.79;37.49;152254.06;5065432;28;20032;-72
2023/06/19 06:14:26;;;;;;;5.38;2.40;;;;;;;19.63;37.27;152214.00;5065454;28;20029;-73
2023/06/19 06:16:51;;;;;;;3.30;2.13;;;;;;;19.63;38.44;152214.00;5064894;28;20044;-74
2023/06/19 06:19:17;;;;;;;5.43;2.42;;;;;;;19.89;37.84;152278.59;5061490;28;20021;-73
2023/06/19 06:21:42;;;;;;;5.22;2.50;;;;;;;20.00;38.35;152307.00;5057750;28;20079;-71
2023/06/19 06:24:08;;;;;;;3.67;2.05;;;;;;;19.52;36.45;152186.88;5059263;28;20053;-70
2023/06/19 06:26:35;;;;;;;3.08;1.90;;;;;;;20.05;37.46;152319.94;5061784;28;20064;-72
2023/06/19 06:29:00;;;;;;;3.50;1.92;;;;;;;19.89;38.26;152278.59;5065425;28;20036;-71
2023/06/19 06:31:27;;;;;;;3.60;2.53;;;;;;;19.79;37.99;152255.34;5065391;28;20025;-72
2023/06/19 06:33:52;;;;;;;5.22;2.38;;;;;;;19.87;37.84;152273.44;5065063;28;20035;-71
2023/06/19 06:36:18;;;;;;;2.63;2.13;;;;;;;20.22;36.86;152362.50;5064858;28;20028;-71
2023/06/19 06:38:44;;;;;;;3.92;2.28;;;;;;;20.25;37.18;152368.97;5057166;28;20017;-72
2023/06/19 06:41:09;;;;;;;2.72;2.38;;;;;;;20.07;36.49;152325.06;5065069;28;20053;-72
2023/06/19 06:43:35;;;;;;;5.35;2.63;;;;;;;20.00;36.90;152307.00;5065097;28;20305;-70
2023/06/19 06:46:00;;;;;;;3.67;2.47;;;;;;;20.05;37.06;152319.94;5064806;28;20066;-71
2023/06/19 06:48:26;;;;;;;3.38;2.28;;;;;;;19.79;36.96;152254.06;5065536;28;20040;-71
2023/06/19 06:51:00;;;;;;;2.60;2.35;;;;;;;19.82;37.37;152261.78;5064264;28;20037;-72
2023/06/19 06:53:27;;;;;;;6.53;2.42;;;;;;;20.18;37.10;152352.22;5061312;28;20214;-71
2023/06/19 06:55:54;;;;;;;4.25;2.50;;;;;;;20.42;37.22;152412.91;5064698;28;20099;-72
2023/06/19 06:58:19;;;;;;;4.90;2.20;;;;;;;20.48;37.48;152428.41;5060438;28;20302;-74
2023/06/19 07:00:45;;;;;;;4.15;2.53;;;;;;;20.60;37.31;152456.81;5053518;28;20074;-72
2023/06/19 07:03:11;;;;;;;4.22;2.03;;;;;;;21.01;37.04;152561.50;5046516;28;20075;-73
2023/06/19 07:05:36;;;;;;;3.13;2.10;;;;;;;20.97;36.49;152551.16;5056736;28;20101;-74
2023/06/19 07:08:03;;;;;;;3.28;2.30;;;;;;;21.01;36.36;152560.22;5061409;28;20230;-74
2023/06/19 07:10:30;;;;;;;6.55;2.30;;;;;;;21.00;36.84;152558.91;5055373;28;20056;-74
2023/06/19 07:12:56;;;;;;;4.35;2.30;;;;;;;21.15;36.65;152595.06;5055546;28;20029;-74
2023/06/19 07:15:21;;;;;;;4.18;2.35;;;;;;;20.98;36.26;152552.47;5064196;28;20167;-75
2023/06/19 07:17:47;;;;;;;3.05;2.10;;;;;;;20.99;36.29;152555.03;5064003;28;20049;-74
2023/06/19 07:20:13;;;;;;;5.85;2.55;;;;;;;21.21;37.08;152611.88;5063937;28;20032;-74
2023/06/19 07:22:39;;;;;;;5.93;2.88;;;;;;;21.01;36.66;152560.22;5062972;28;20309;-73
2023/06/19 07:25:05;;;;;;;5.28;2.42;;;;;;;21.29;37.56;152629.97;5061422;28;20091;-76
2023/06/19 07:27:31;;;;;;;4.03;2.50;;;;;;;21.23;35.70;152614.47;5046387;28;20035;-74
2023/06/19 07:29:56;;;;;;;6.45;2.40;;;;;;;21.23;36.18;152614.47;5064049;28;20024;-75
2023/06/19 07:32:22;;;;;;;3.47;2.50;;;;;;;21.31;35.38;152635.16;5063766;28;20048;-76
2023/06/19 07:34:48;;;;;;;2.55;2.10;;;;;;;21.51;35.95;152686.91;5062450;28;20017;-73
2023/06/19 07:37:20;;;;;;;3.25;2.20;;;;;;;21.32;34.99;152639.03;5042431;28;20037;-75
2023/06/19 07:39:47;;;;;;;3.47;2.35;;;;;;;21.21;35.75;152610.63;5059184;28;20036;-75
2023/06/19 07:42:17;;;;;;;4.93;2.58;;;;;;;21.43;36.13;152666.16;5063589;28;20036;-74
2023/06/19 07:44:43;;;;;;;3.17;2.65;;;;;;;21.28;35.52;152628.69;5063299;28;20036;-73
2023/06/19 07:47:09;;;;;;;3.58;2.65;;;;;;;21.22;34.81;152613.22;5064205;28;20080;-74
2023/06/19 07:49:36;;;;;;;4.35;2.20;;;;;;;21.23;34.22;152614.47;5063290;28;20082;-73
2023/06/19 07:52:03;;;;;;;2.75;2.30;;;;;;;20.91;35.02;152535.66;5063631;28;20025;-74
2023/06/19 07:54:28;;;;;;;3.47;2.15;;;;;;;20.93;35.81;152539.53;5058342;28;20144;-71
2023/06/19 07:56:54;;;;;;;4.18;2.20;;;;;;;20.95;34.89;152544.69;5048390;28;20033;-74
2023/06/19 07:59:20;;;;;;;3.97;2.35;;;;;;;21.31;35.66;152636.44;5063321;28;20036;-74
2023/06/19 08:01:45;;;;;;;3.65;2.78;;;;;;;21.09;34.78;152580.91;5063321;28;20306;-74
2023/06/19 08:04:11;;;;;;;3.75;2.63;;;;;;;21.42;34.39;152662.28;5063248;28;20063;-75
2023/06/19 08:06:37;;;;;;;4.65;2.60;;;;;;;21.52;35.12;152688.16;5063059;28;20221;-74
2023/06/19 08:09:03;;;;;;;4.80;2.50;;;;;;;21.81;35.06;152760.59;5056898;28;20045;-74
2023/06/19 08:11:29;;;;;;;3.15;2.70;;;;;;;21.97;34.66;152800.66;5052188;28;20112;-73
2023/06/19 08:13:54;;;;;;;9.63;2.70;;;;;;;21.84;34.27;152769.63;5062850;28;20012;-74
2023/06/19 08:16:20;;;;;;;4.82;2.72;;;;;;;22.16;34.80;152849.81;5059111;28;20032;-74
2023/06/19 08:18:45;;;;;;;5.13;2.45;;;;;;;22.34;34.75;152893.81;5047900;28;20021;-73
2023/06/19 08:21:12;;;;;;;6.65;2.50;;;;;;;21.64;33.47;152717.94;5047861;28;20020;-74
2023/06/19 08:23:39;;;;;;;4.07;2.33;;;;;;;21.27;34.15;152626.09;5056808;28;20055;-73
2023/06/19 08:26:05;;;;;;;3.63;2.20;;;;;;;21.54;35.00;152693.38;5058803;28;20298;-74
2023/06/19 08:28:34;;;;;;;2.53;2.17;;;;;;;21.83;34.33;152767.06;5078395;28;20025;-74
2023/06/19 08:31:00;;;;;;;4.18;2.55;;;;;;;22.00;34.21;152808.41;5059780;28;20029;-72
2023/06/19 08:33:26;;;;;;;4.75;2.30;;;;;;;21.41;34.31;152661.00;5057667;28;20048;-70
2023/06/19 08:35:52;;;;;;;3.72;2.20;;;;;;;21.38;34.77;152654.53;5062741;28;20032;-69
2023/06/19 08:38:18;;;;;;;4.35;2.35;;;;;;;21.55;33.26;152697.25;5060313;28;20044;-70
2023/06/19 08:40:44;;;;;;;4.15;2.47;;;;;;;21.50;33.76;152684.25;5054872;28;20037;-70
2023/06/19 08:43:10;;;;;;;2.50;2.10;;;;;;;21.47;30.68;152676.50;5055511;28;20056;-69
2023/06/19 08:45:35;;;;;;;5.47;3.10;;;;;;;21.68;31.78;152728.28;5059175;28;20349;-70
2023/06/19 08:48:03;;;;;;;2.70;2.30;;;;;;;21.95;31.11;152796.78;5066398;28;20029;-70
2023/06/19 08:50:32;;;;;;;6.32;2.33;;;;;;;22.24;31.58;152869.19;5066073;28;20029;-70
2023/06/19 08:52:58;;;;;;;3.42;2.10;;;;;;;22.49;31.76;152931.28;5066409;28;20048;-70
2023/06/19 08:55:24;;;;;;;3.90;2.60;;;;;;;22.46;30.97;152923.53;5053770;28;20068;-70
2023/06/19 08:57:52;;;;;;;3.63;2.40;;;;;;;22.24;31.21;152870.47;5055359;28;20061;-70
2023/06/19 09:00:28;;;;;;;3.85;2.40;;;;;;;22.15;31.66;152847.22;5046737;28;20225;-70
2023/06/19 09:03:02;;;;;;;2.78;2.20;;;;;;;22.22;31.78;152865.31;5062079;28;20052;-69
2023/06/19 09:05:28;;;;;;;5.25;2.30;;;;;;;22.59;32.08;152957.19;5065986;28;20033;-70
2023/06/19 09:08:03;;;;;;;4.35;2.30;;;;;;;22.84;32.24;153019.28;5065952;28;20021;-70
2023/06/19 09:10:29;;;;;;;3.78;2.45;;;;;;;22.83;32.00;153018.00;5060158;28;20100;-69
2023/06/19 09:13:04;;;;;;;3.53;2.70;;;;;;;22.78;31.78;153005.03;5048036;28;20021;-70
2023/06/19 09:15:32;;;;;;;2.47;2.15;;;;;;;22.87;32.39;153027.03;5066102;28;20085;-70
2023/06/19 09:18:02;;;;;;;6.28;2.63;;;;;;;22.72;32.66;152989.53;5066461;28;20021;-69
2023/06/19 09:20:29;;;;;;;5.10;2.53;;;;;;;22.73;32.44;152992.09;5066252;28;20039;-72
2023/06/19 09:22:55;;;;;;;3.13;2.55;;;;;;;22.16;32.07;152849.81;5064765;28;20044;-69
2023/06/19 09:25:23;;;;;;;3.35;2.33;;;;;;;21.78;31.74;152754.13;5062125;28;20025;-70
2023/06/19 09:27:49;;;;;;;5.75;2.03;;;;;;;21.94;32.22;152792.91;5055243;28;20059;-70
2023/06/19 09:30:17;;;;;;;4.25;2.35;;;;;;;21.97;31.93;152801.94;5065297;28;20037;-70
2023/06/19 09:32:43;;;;;;;4.45;2.88;;;;;;;22.22;32.80;152865.31;5065619;28;20229;-72
2023/06/19 09:35:08;;;;;;;4.22;2.33;;;;;;;22.62;32.50;152964.94;5065000;28;20025;-71
2023/06/19 09:37:35;;;;;;;3.50;2.22;;;;;;;22.84;32.10;153019.28;5065647;28;20056;-69
2023/06/19 09:40:10;;;;;;;4.13;2.55;;;;;;;22.84;31.88;153020.53;5062244;28;20348;-70
2023/06/19 09:42:43;;;;;;;2.88;2.25;;;;;;;22.96;32.13;153049.00;5065502;28;20206;-70
2023/06/19 09:45:11;;;;;;;3.95;2.30;;;;;;;22.77;30.68;153002.44;5065602;28;20024;-69
2023/06/19 09:47:44;;;;;;;4.40;2.40;;;;;;;22.49;30.32;152932.63;5065572;28;20330;-69
2023/06/19 09:50:13;;;;;;;4.38;2.75;;;;;;;22.83;30.47;153016.66;5045837;28;20033;-69
2023/06/19 09:52:41;;;;;;;6.95;2.17;;;;;;;22.73;30.94;152992.09;5061140;28;20219;-71
2023/06/19 09:55:08;;;;;;;4.15;2.00;;;;;;;22.44;29.08;152918.38;5063484;28;20041;-70
2023/06/19 09:57:34;;;;;;;3.28;1.90;;;;;;;22.01;29.94;152811.00;5063166;28;20599;-69
2023/06/19 10:00:10;;;;;;;2.67;2.20;;;;;;;22.16;30.06;152848.47;5065616;28;20025;-70
2023/06/19 10:02:36;;;;;;;2.67;2.22;;;;;;;22.19;30.04;152856.22;5063570;28;20310;-69
2023/06/19 10:05:02;;;;;;;5.72;2.10;;;;;;;22.08;29.46;152829.09;5064971;28;20217;-70
2023/06/19 10:07:34;;;;;;;2.95;2.45;;;;;;;22.08;29.18;152829.09;5064978;28;20029;-69
2023/06/19 10:10:06;;;;;;;4.87;2.47;;;;;;;22.01;29.18;152811.00;5053095;28;20075;-70
2023/06/19 10:12:35;;;;;;;4.05;2.50;;;;;;;22.31;29.76;152886.00;5051736;28;20743;-69
2023/06/19 10:15:28;;;;;;;5.70;2.42;;;;;;;22.40;28.96;152910.63;5064856;28;20036;-71
2023/06/19 10:18:04;;;;;;;2.45;2.05;;;;;;;22.57;30.13;152952.00;5048394;28;20142;-70
2023/06/19 10:20:37;;;;;;;4.25;2.25;;;;;;;22.65;29.30;152971.44;5059139;28;20101;-70
2023/06/19 10:23:06;;;;;;;4.25;2.17;;;;;;;22.84;30.14;153020.53;5063558;28;20029;-70
2023/06/19 10:25:37;;;;;;;3.53;2.20;;;;;;;22.79;28.42;153006.31;5060405;28;20144;-71
2023/06/19 10:28:07;;;;;;;2.38;2.00;;;;;;;22.88;28.91;153030.91;5064094;28;20036;-70
2023/06/19 10:30:34;;;;;;;4.03;2.58;;;;;;;22.89;28.79;153032.22;5063041;28;20070;-70
2023/06/19 10:33:02;;;;;;;6.82;2.40;;;;;;;22.49;27.67;152932.63;5064118;28;20037;-71
2023/06/19 10:35:28;;;;;;;2.80;2.35;;;;;;;22.76;29.29;152999.88;5065001;28;20044;-70
2023/06/19 10:37:54;;;;;;;4.25;2.47;;;;;;;22.80;28.73;153010.19;5064648;28;20048;-71
2023/06/19 10:40:19;;;;;;;3.75;2.60;;;;;;;;;;5062795;28;20032;-69
2023/06/19 10:42:46;;;;;;;4.18;2.15;;;;;;;22.87;28.99;153028.34;5064240;28;20158;-70
2023/06/19 10:45:13;;;;;;;3.42;2.53;;;;;;;23.09;28.79;153083.94;5063084;28;20110;-70
2023/06/19 10:47:40;;;;;;;2.50;1.90;;;;;;;23.19;29.73;153108.59;5064669;28;20039;-69
2023/06/19 10:50:15;;;;;;;2.63;2.42;;;;;;;23.29;30.00;153131.84;5064780;28;20044;-70
2023/06/19 10:52:42;;;;;;;2.70;2.30;;;;;;;23.11;29.25;153087.88;5064203;28;20033;-70
2023/06/19 10:55:08;;;;;;;4.05;3.20;;;;;;;23.09;29.57;153082.69;5056957;28;20021;-70
2023/06/19 10:57:34;;;;;;;5.45;2.90;;;;;;;23.21;30.00;153112.47;5060584;28;20039;-71
2023/06/19 10:59:59;;;;;;;5.32;2.63;;;;;;;23.24;29.64;153121.53;5063704;28;20070;-71
2023/06/19 11:02:25;;;;;;;2.72;2.53;;;;;;;22.70;28.31;152985.66;5063892;28;20025;-70
2023/06/19 11:04:57;;;;;;;5.53;2.78;;;;;;;22.63;28.52;152966.22;5063602;28;20036;-70
2023/06/19 11:07:22;;;;;;;3.45;2.38;;;;;;;22.92;28.73;153039.97;5063686;28;20021;-70
2023/06/19 11:09:51;;;;;;;4.05;2.63;;;;;;;22.84;27.83;153019.28;5061866;28;20108;-71
2023/06/19 11:12:20;;;;;;;3.03;2.47;;;;;;;22.70;28.03;152984.31;5054277;28;20040;-72
2023/06/19 11:14:47;;;;;;;3.92;2.47;;;;;;;22.73;28.85;152993.41;5063704;28;20067;-71
2023/06/19 11:17:13;;;;;;;4.00;2.83;;;;;;;22.69;28.72;152981.78;5026404;28;20334;-72
2023/06/19 11:19:41;;;;;;;12.15;3.60;;;;;;;22.81;28.58;153012.78;5061794;28;20043;-71
2023/06/19 11:22:07;;;;;;;3.95;2.20;;;;;;;22.77;28.89;153002.44;5063807;28;20028;-70
2023/06/19 11:24:33;;;;;;;9.85;2.75;;;;;;;22.70;28.34;152984.31;5061917;28;20039;-71